• Join FlightAware (Why Join?)
  • Login
  • US Flag 
11:46AM EDT


 

Airport Tracker/Info


-or-


 

Live Flight TrackerFlight Track Log ✈ N356TB ✈ 17-Aug-2013 ✈ KUMP - KHNB

Flight Track Log - Related Links

Times and Time Zones

All times are in EDT time to prevent confusion due to time zone crossing. See the N356TB flight status page for this flight to view local times or setup timezone preferences in your user account.

Time Position Orientation Groundspeed Altitude Reporting Facility
EDT Latitude Longitude Course Direction KTS MPH feet Rate Location/Type
08:55AM 39.9167 -86.0333 123° Southeast 107 123 1,100  Level Indianapolis TRACON
08:56AM 39.9000 -86.0000 123° Southeast 110 127 1,900 720 Climbing Indianapolis TRACON
08:57AM 39.8667 -85.9833 159° South 119 137 2,600 420 Climbing Indianapolis TRACON
08:58AM 39.8386 -85.9736 165° South 122 140 2,800 420 Climbing Indianapolis Center
08:59AM 39.7978 -85.9797 187° South 132 152 3,500 480 Climbing Indianapolis Center
09:00AM 39.7658 -86.0006 207° Southwest 129 148 3,900 180 Climbing Indianapolis Center
09:01AM 39.7311 -86.0225 206° Southwest 134 154 3,900  Level Indianapolis Center
09:02AM 39.6964 -86.0458 207° Southwest 137 158 3,900  Level Indianapolis Center
09:03AM 39.6608 -86.0669 205° Southwest 139 160 3,900  Level Indianapolis Center
09:04AM 39.6258 -86.0894 206° Southwest 139 160 3,900  Level Indianapolis Center
09:05AM 39.5906 -86.1119 206° Southwest 140 161 3,900  Level Indianapolis Center
09:06AM 39.5561 -86.1356 208° Southwest 140 161 3,900  Level Indianapolis Center
09:07AM 39.5197 -86.1578 205° Southwest 143 165 3,900  Level Indianapolis Center
09:08AM 39.4842 -86.1800 206° Southwest 143 165 3,900  Level Indianapolis Center
09:09AM 39.4417 -86.2075 207° Southwest 142 163 3,900  Level Indianapolis Center
09:10AM 39.4053 -86.2300 206° Southwest 144 166 3,900  Level Indianapolis Center
09:11AM 39.3703 -86.2522 206° Southwest 142 163 3,900  Level Indianapolis Center
09:12AM 39.3342 -86.2753 206° Southwest 144 166 3,900  Level Indianapolis Center
09:13AM 39.2994 -86.2975 206° Southwest 141 162 3,900  Level Indianapolis Center
09:14AM 39.2639 -86.3197 206° Southwest 142 163 3,900  Level Indianapolis Center
09:15AM 39.2297 -86.3428 208° Southwest 140 161 3,900  Level Indianapolis Center
09:16AM 39.1947 -86.3650 206° Southwest 141 162 3,900  Level Indianapolis Center
09:17AM 39.1525 -86.3908 205° Southwest 140 161 3,900  Level Indianapolis Center
09:18AM 39.1175 -86.4136 207° Southwest 140 161 3,900  Level Indianapolis Center
09:19AM 39.0819 -86.4344 204° Southwest 140 161 3,900  Level Indianapolis Center
09:20AM 39.0467 -86.4556 205° Southwest 140 161 3,900  Level Indianapolis Center
09:21AM 39.0117 -86.4803 209° Southwest 142 163 3,900  Level Indianapolis Center
09:22AM 38.9758 -86.5019 205° Southwest 141 162 3,900  Level Indianapolis Center
09:23AM 38.9406 -86.5253 207° Southwest 141 162 3,900  Level Indianapolis Center
09:24AM 38.8978 -86.5508 205° Southwest 142 163 3,900 -60 Level Indianapolis Center
09:26AM 38.8675 -86.5697 206° Southwest 143 165 3,800 -60 Descending Indianapolis Center
09:27AM 38.8250 -86.5975 207° Southwest 141 162 3,800  Level Indianapolis Center
09:28AM 38.7886 -86.6197 205° Southwest 142 163 3,800  Level Indianapolis Center
09:29AM 38.7536 -86.6406 205° Southwest 140 161 3,800  Level Indianapolis Center
09:30AM 38.7175 -86.6636 206° Southwest 142 163 3,800  Level Indianapolis Center
09:31AM 38.6822 -86.6861 206° Southwest 141 162 3,800  Level Indianapolis Center
09:32AM 38.6469 -86.7075 205° Southwest 140 161 3,800  Level Indianapolis Center
09:33AM 38.6122 -86.7289 206° Southwest 138 159 3,800  Level Indianapolis Center
09:34AM 38.5775 -86.7511 207° Southwest 139 160 3,800  Level Indianapolis Center
09:35AM 38.5419 -86.7722 205° Southwest 139 160 3,800 -300 Level Indianapolis Center
09:36AM 38.5061 -86.7950 206° Southwest 141 162 3,300 -600 Descending Indianapolis Center
09:37AM 38.4611 -86.8222 205° Southwest 146 168 2,600 -540 Descending Indianapolis Center
09:38AM 38.4250 -86.8453 207° Southwest 145 167 2,300 -180 Descending Indianapolis Center
09:39AM 38.3914 -86.8664 206° Southwest 140 161 2,300  Level Indianapolis Center
09:40AM 38.3583 -86.8861 205° Southwest 134 154 2,300  Level Indianapolis Center
09:41AM 38.3242 -86.9078 206° Southwest 134 154 2,300 -180 Level Indianapolis Center
09:42AM 38.2906 -86.9300 207° Southwest 134 154 2,000 -540 Descending Indianapolis Center
09:43AM 38.2722 -86.9647 236° Southwest 122 140 1,300 -540 Descending Indianapolis Center
09:44AM 38.2550 -86.9858 224° Southwest 109 125 1,000 -420 Descending Indianapolis Center
09:45AM 38.2481 -86.9558 106° East 98 113 500 -540 Descending Indianapolis Center
09:47AM 38.2490 -86.9537 North  Level Estimated